Time;durP1;ratioP1;P1;durP2;ratioP2;P2;SDS_P1;SDS_P2;PMS_P1;PMS_P2;Temp;Humidity;BMP_temperature;BMP_pressure;BME280_temperature;BME280_humidity;BME280_pressure;Samples;Min_cycle;Max_cycle;Signal;HPM_P1;HPM_P2
2022/04/21 00:00:31;;;;;;;6.50;3.72;;;7.70;97.80;;;;;;5023490;28;20017;-66
2022/04/21 00:02:57;;;;;;;6.80;3.50;;;7.70;96.50;;;;;;5047700;28;20389;-66
2022/04/21 00:05:22;;;;;;;7.10;3.42;;;7.70;95.80;;;;;;5030302;28;20041;-63
2022/04/21 00:07:48;;;;;;;11.95;3.92;;;7.70;96.30;;;;;;5028641;28;20489;-65
2022/04/21 00:10:14;;;;;;;7.30;3.13;;;7.60;95.40;;;;;;5049008;28;20086;-65
2022/04/21 00:12:40;;;;;;;5.90;3.25;;;7.60;95.20;;;;;;5028510;28;20041;-65
2022/04/21 00:15:07;;;;;;;8.07;2.85;;;7.60;97.10;;;;;;5048924;28;20090;-65
2022/04/21 00:17:33;;;;;;;9.57;4.13;;;7.60;98.00;;;;;;5028272;28;20566;-65
2022/04/21 00:19:59;;;;;;;10.82;4.10;;;7.60;97.00;;;;;;5048440;28;20154;-65
2022/04/21 00:25:09;;;;;;;9.85;3.35;;;7.60;97.80;;;;;;5010101;28;20088;-65
2022/04/21 00:27:39;;;;;;;7.85;3.40;;;7.50;97.90;;;;;;5029606;28;20041;-64
2022/04/21 00:30:08;;;;;;;6.38;2.67;;;7.60;97.80;;;;;;5049291;28;20485;-65
2022/04/21 00:32:38;;;;;;;5.90;2.90;;;7.50;98.10;;;;;;5027715;28;20103;-66
2022/04/21 00:35:05;;;;;;;7.07;3.75;;;7.50;99.00;;;;;;5049411;28;20035;-65
2022/04/21 00:37:30;;;;;;;7.88;3.33;;;7.50;98.30;;;;;;5027838;28;20033;-66
2022/04/21 00:39:56;;;;;;;7.50;3.83;;;7.60;99.50;;;;;;5048366;28;20133;-65
2022/04/21 00:42:22;;;;;;;9.70;2.75;;;7.60;99.90;;;;;;5027003;28;20029;-66
2022/04/21 00:44:50;;;;;;;7.70;3.58;;;7.60;99.90;;;;;;5048441;28;20040;-66
2022/04/21 00:47:17;;;;;;;7.00;3.40;;;7.50;99.50;;;;;;5027273;28;20029;-66
2022/04/21 00:49:44;;;;;;;7.85;3.63;;;7.60;99.90;;;;;;5044078;28;20037;-65
2022/04/21 00:52:09;;;;;;;4.88;2.70;;;7.60;98.90;;;;;;5040425;28;20400;-65
2022/04/21 00:54:35;;;;;;;9.98;4.05;;;7.60;99.70;;;;;;5029401;28;20021;-67
2022/04/21 00:57:02;;;;;;;7.93;3.28;;;7.50;99.90;;;;;;5034109;28;20408;-66
2022/04/21 00:59:27;;;;;;;7.13;3.28;;;7.50;99.90;;;;;;5041383;28;20025;-66
2022/04/21 01:04:41;;;;;;;9.07;3.80;;;7.50;99.90;;;;;;5028572;28;20028;-65
2022/04/21 01:07:11;;;;;;;6.38;3.28;;;7.50;99.90;;;;;;5033250;28;20083;-66
2022/04/21 01:09:40;;;;;;;6.30;3.05;;;7.40;99.60;;;;;;5048348;28;20083;-66
2022/04/21 01:12:11;;;;;;;9.80;4.18;;;7.40;99.90;;;;;;5026886;28;20037;-66
2022/04/21 01:14:38;;;;;;;6.95;3.42;;;7.40;99.60;;;;;;5027456;28;20034;-66
2022/04/21 01:17:04;;;;;;;6.78;3.60;;;7.30;99.90;;;;;;5033624;28;20034;-66
2022/04/21 01:19:30;;;;;;;7.47;3.60;;;7.40;99.90;;;;;;5047987;28;20468;-66
2022/04/21 01:21:55;;;;;;;5.95;3.60;;;7.30;99.90;;;;;;5026979;28;20033;-66
2022/04/21 01:24:21;;;;;;;8.80;3.47;;;7.30;99.90;;;;;;5047543;28;20107;-66
2022/04/21 01:26:47;;;;;;;10.48;4.28;;;7.30;99.90;;;;;;5037195;28;20044;-66
2022/04/21 01:29:13;;;;;;;10.98;4.35;;;7.30;99.90;;;;;;5028910;28;20025;-66
2022/04/21 01:31:39;;;;;;;8.98;4.18;;;7.30;99.90;;;;;;5045438;28;20039;-66
2022/04/21 01:34:04;;;;;;;8.20;3.75;;;7.20;99.90;;;;;;5028695;28;20026;-66
2022/04/21 01:36:30;;;;;;;11.05;4.47;;;7.20;99.90;;;;;;5045583;28;20388;-66
2022/04/21 01:41:40;;;;;;;7.82;3.50;;;7.30;99.90;;;;;;5025152;28;20122;-66
2022/04/21 01:44:05;;;;;;;7.78;3.47;;;7.30;99.90;;;;;;5028690;28;20092;-66
2022/04/21 01:46:31;;;;;;;4.95;2.78;;;7.30;99.90;;;;;;5045681;28;20040;-66
2022/04/21 01:48:56;;;;;;;12.65;3.88;;;7.30;99.90;;;;;;5028258;28;20047;-66
2022/04/21 01:51:22;;;;;;;5.18;3.15;;;7.30;99.90;;;;;;5027371;28;20071;-66
2022/04/21 01:53:48;;;;;;;11.25;3.30;;;7.30;99.90;;;;;;5047686;28;20463;-66
2022/04/21 01:56:14;;;;;;;7.75;3.92;;;7.30;99.90;;;;;;5032337;28;20029;-66
2022/04/21 01:58:40;;;;;;;5.78;3.00;;;7.30;99.90;;;;;;5047830;28;20017;-66
2022/04/21 02:01:06;;;;;;;7.78;3.00;;;7.30;99.90;;;;;;5023964;28;20033;-66
2022/04/21 02:03:32;;;;;;;6.93;2.90;;;7.30;99.90;;;;;;5047930;28;20025;-66
2022/04/21 02:05:58;;;;;;;9.65;3.85;;;7.30;99.90;;;;;;5029670;28;20253;-66
2022/04/21 02:08:24;;;;;;;7.68;3.47;;;7.30;99.90;;;;;;5047861;28;20025;-66
2022/04/21 02:10:49;;;;;;;5.40;2.75;;;7.30;99.90;;;;;;5028915;28;20100;-66
2022/04/21 02:13:14;;;;;;;8.30;3.30;;;7.30;99.90;;;;;;5047735;28;20429;-66
2022/04/21 02:15:40;;;;;;;8.25;2.65;;;7.30;99.90;;;;;;5027294;28;20095;-66
2022/04/21 02:18:06;;;;;;;7.85;3.38;;;7.30;99.90;;;;;;5047740;28;20040;-66
2022/04/21 02:20:31;;;;;;;5.72;3.10;;;7.30;99.90;;;;;;5028416;28;20031;-66
2022/04/21 02:22:57;;;;;;;11.70;3.35;;;7.30;99.90;;;;;;5045630;28;20037;-66
2022/04/21 02:25:22;;;;;;;6.03;2.72;;;7.30;99.90;;;;;;5028059;28;20025;-66
2022/04/21 02:27:49;;;;;;;11.32;3.50;;;7.40;99.90;;;;;;5026743;28;20042;-66
2022/04/21 02:30:17;;;;;;;13.35;3.80;;;7.30;99.90;;;;;;5047236;28;20032;-66
2022/04/21 02:32:43;;;;;;;7.97;3.10;;;7.30;99.90;;;;;;5025983;28;20034;-66
2022/04/21 02:35:10;;;;;;;8.45;3.72;;;7.30;99.90;;;;;;5046968;28;20033;-66
2022/04/21 02:37:44;;;;;;;12.48;4.13;;;7.30;99.90;;;;;;5026131;28;20481;-65
2022/04/21 02:40:11;;;;;;;10.90;3.65;;;7.30;99.90;;;;;;5007997;28;20075;-66
2022/04/21 02:42:38;;;;;;;8.52;4.15;;;7.20;99.90;;;;;;5027594;28;20028;-66
2022/04/21 02:45:08;;;;;;;13.02;4.10;;;7.20;99.90;;;;;;5046909;28;20029;-66
2022/04/21 02:47:35;;;;;;;7.45;3.42;;;7.20;99.90;;;;;;5025750;28;20033;-67
2022/04/21 02:50:01;;;;;;;9.48;3.50;;;7.20;99.90;;;;;;5040119;28;20115;-66
2022/04/21 02:52:27;;;;;;;8.38;3.78;;;7.20;99.90;;;;;;5041333;28;20036;-66
2022/04/21 02:57:38;;;;;;;5.32;3.10;;;7.10;99.90;;;;;;5022745;28;20120;-65
2022/04/21 03:00:06;;;;;;;8.77;3.55;;;7.10;99.90;;;;;;5031728;28;20056;-66
2022/04/21 03:02:31;;;;;;;11.35;3.85;;;7.10;99.90;;;;;;5029043;28;20079;-67
2022/04/21 03:04:56;;;;;;;10.18;3.80;;;7.10;99.90;;;;;;5046749;28;20041;-66
2022/04/21 03:07:22;;;;;;;6.65;3.65;;;7.10;99.90;;;;;;5029742;28;20188;-66
2022/04/21 03:09:53;;;;;;;8.27;3.13;;;7.10;99.90;;;;;;5050258;28;20568;-66
2022/04/21 03:12:21;;;;;;;9.15;3.92;;;7.00;99.90;;;;;;5029283;28;20048;-66
2022/04/21 03:14:49;;;;;;;10.57;3.65;;;7.00;99.90;;;;;;5050362;28;20025;-66
2022/04/21 03:17:14;;;;;;;9.48;3.85;;;7.00;99.90;;;;;;5029081;28;20112;-66
2022/04/21 03:19:40;;;;;;;7.45;3.95;;;7.00;99.90;;;;;;5049757;28;20040;-66
2022/04/21 03:25:06;;;;;;;9.52;3.58;;;7.00;99.90;;;;;;5010612;28;20124;-66
2022/04/21 03:27:33;;;;;;;9.13;4.07;;;7.00;99.90;;;;;;5028999;28;20109;-66
2022/04/21 03:30:05;;;;;;;12.00;4.00;;;7.00;99.90;;;;;;5049556;28;20025;-66
2022/04/21 03:32:30;;;;;;;11.77;3.58;;;6.90;99.90;;;;;;5028756;28;20034;-66
2022/04/21 03:34:56;;;;;;;5.13;3.30;;;6.90;99.90;;;;;;5049712;28;20284;-66
2022/04/21 03:37:22;;;;;;;11.07;3.65;;;6.90;99.90;;;;;;5029451;28;20507;-66
2022/04/21 03:39:48;;;;;;;9.85;4.50;;;6.90;99.90;;;;;;5049875;28;20500;-66
2022/04/21 03:42:19;;;;;;;8.20;3.78;;;6.90;99.90;;;;;;5029070;28;20030;-66
2022/04/21 03:44:45;;;;;;;5.18;3.05;;;6.90;99.90;;;;;;5049811;28;20542;-66
2022/04/21 03:47:11;;;;;;;8.93;3.90;;;6.90;99.90;;;;;;5028917;28;20041;-66
2022/04/21 03:49:36;;;;;;;7.93;3.90;;;6.90;99.90;;;;;;5045647;28;20505;-66
2022/04/21 03:52:02;;;;;;;9.77;3.53;;;6.90;99.90;;;;;;5040536;28;20042;-66
2022/04/21 03:54:28;;;;;;;10.35;3.72;;;6.90;99.90;;;;;;5030513;28;20060;-66
2022/04/21 03:56:54;;;;;;;6.72;3.40;;;6.90;99.90;;;;;;5036415;28;20036;-66
2022/04/21 03:59:21;;;;;;;9.50;4.20;;;6.90;99.90;;;;;;5043037;28;20021;-66
2022/04/21 04:01:47;;;;;;;12.73;4.28;;;6.90;99.90;;;;;;5038284;28;20500;-66
2022/04/21 04:04:13;;;;;;;8.50;3.95;;;6.90;99.90;;;;;;5030394;28;20037;-66
2022/04/21 04:12:08;;;;;;;6.43;3.38;;;6.90;99.90;;;;;;5041021;28;20044;-66
2022/04/21 04:14:34;;;;;;;7.88;3.58;;;6.90;99.90;;;;;;5030073;28;20370;-66
2022/04/21 04:17:00;;;;;;;6.38;3.65;;;6.90;99.90;;;;;;5035040;28;20028;-66
2022/04/21 04:19:25;;;;;;;9.23;3.22;;;6.90;99.90;;;;;;5048838;28;20108;-66
2022/04/21 04:21:51;;;;;;;5.40;3.38;;;6.90;99.90;;;;;;5038972;28;20039;-66
2022/04/21 04:24:17;;;;;;;7.25;2.92;;;6.90;99.90;;;;;;5029790;28;20025;-66
2022/04/21 04:26:42;;;;;;;9.07;3.80;;;6.90;99.90;;;;;;5046760;28;20162;-66
2022/04/21 04:29:09;;;;;;;14.00;5.80;;;6.90;99.90;;;;;;5030080;28;20040;-66
2022/04/21 04:31:36;;;;;;;11.77;4.43;;;6.90;99.90;;;;;;5046812;28;20040;-65
2022/04/21 04:34:01;;;;;;;9.52;4.57;;;6.90;99.90;;;;;;5029661;28;20439;-66
2022/04/21 04:36:28;;;;;;;8.63;4.55;;;6.90;99.90;;;;;;5046707;28;20029;-66
2022/04/21 04:38:54;;;;;;;8.93;4.43;;;6.90;99.90;;;;;;5049324;28;20078;-66
2022/04/21 04:44:04;;;;;;;9.70;4.75;;;6.90;99.90;;;;;;5049463;28;20384;-66
2022/04/21 04:46:35;;;;;;;5.80;3.20;;;7.00;99.90;;;;;;5035718;28;20037;-66
2022/04/21 04:49:06;;;;;;;9.15;4.22;;;7.00;99.90;;;;;;5009257;28;20038;-64
2022/04/21 04:51:33;;;;;;;11.73;4.30;;;7.00;99.90;;;;;;5046174;28;20044;-65
2022/04/21 04:53:58;;;;;;;8.98;3.92;;;7.00;99.90;;;;;;5029049;28;20063;-67
2022/04/21 04:56:24;;;;;;;9.73;4.45;;;7.00;99.90;;;;;;5046274;28;20438;-65
2022/04/21 04:58:51;;;;;;;8.38;4.30;;;7.10;99.90;;;;;;5048904;28;20017;-65
2022/04/21 05:01:26;;;;;;;9.30;4.57;;;7.10;99.90;;;;;;5029445;28;20028;-65
2022/04/21 05:03:54;;;;;;;15.82;4.28;;;7.10;99.90;;;;;;5048994;28;20021;-65
2022/04/21 05:06:19;;;;;;;5.90;3.58;;;7.10;99.90;;;;;;5033400;28;20033;-65
2022/04/21 05:08:45;;;;;;;10.18;4.03;;;7.20;99.90;;;;;;5048644;28;20074;-65
2022/04/21 05:11:11;;;;;;;8.98;4.28;;;7.30;99.90;;;;;;5032735;28;20025;-65
2022/04/21 05:13:36;;;;;;;7.70;3.80;;;7.30;99.90;;;;;;5048414;28;20108;-65
2022/04/21 05:16:02;;;;;;;7.05;3.63;;;7.40;99.90;;;;;;5031287;28;20443;-65
2022/04/21 05:18:28;;;;;;;9.48;4.75;;;7.50;99.90;;;;;;5048538;28;20028;-65
2022/04/21 05:20:54;;;;;;;8.18;4.35;;;7.60;99.90;;;;;;5030048;28;20029;-65
2022/04/21 05:23:21;;;;;;;7.78;3.55;;;7.60;99.90;;;;;;5048295;28;20021;-65
2022/04/21 05:25:46;;;;;;;7.13;3.90;;;7.70;99.90;;;;;;5028772;28;20040;-65
2022/04/21 05:28:12;;;;;;;7.18;3.75;;;7.70;99.90;;;;;;5047812;28;20021;-66
2022/04/21 05:33:24;;;;;;;12.30;4.85;;;7.80;99.90;;;;;;5048500;28;20036;-66
2022/04/21 05:35:50;;;;;;;9.65;3.78;;;7.80;99.90;;;;;;5029397;28;20026;-66
2022/04/21 05:38:16;;;;;;;9.50;4.43;;;7.80;99.90;;;;;;5047906;28;20392;-66
2022/04/21 05:40:43;;;;;;;10.73;5.47;;;7.90;99.90;;;;;;5027980;28;20036;-65
2022/04/21 05:43:11;;;;;;;9.55;4.43;;;7.90;99.90;;;;;;5048545;28;20032;-66
2022/04/21 05:45:37;;;;;;;9.10;4.22;;;7.90;99.90;;;;;;5026613;28;20041;-65
2022/04/21 05:48:03;;;;;;;6.15;3.47;;;7.90;99.90;;;;;;5047947;28;20438;-66
2022/04/21 05:50:29;;;;;;;7.35;3.92;;;7.90;99.90;;;;;;5038496;28;20477;-66
2022/04/21 05:52:57;;;;;;;11.82;3.63;;;7.90;99.90;;;;;;5046109;28;20064;-66
2022/04/21 05:55:23;;;;;;;12.15;4.68;;;8.00;99.90;;;;;;5028107;28;20051;-66
2022/04/21 05:57:48;;;;;;;12.32;4.80;;;8.10;99.90;;;;;;5026746;28;20172;-66
2022/04/21 06:00:14;;;;;;;9.48;4.18;;;8.10;99.90;;;;;;5030520;28;20087;-66
2022/04/21 06:02:40;;;;;;;7.18;4.20;;;8.20;99.90;;;;;;5027670;28;20033;-66
2022/04/21 06:05:06;;;;;;;9.02;4.10;;;8.20;99.90;;;;;;5047097;28;20025;-66
2022/04/21 06:07:31;;;;;;;9.80;3.78;;;8.30;99.90;;;;;;5026645;28;20036;-67
2022/04/21 06:09:57;;;;;;;9.57;4.68;;;8.30;99.90;;;;;;5046834;28;20029;-66
2022/04/21 06:12:25;;;;;;;8.43;4.20;;;8.40;99.90;;;;;;5026632;28;20409;-66
2022/04/21 06:14:52;;;;;;;6.78;3.70;;;8.60;99.90;;;;;;5047506;28;20746;-66
2022/04/21 06:17:18;;;;;;;11.70;4.25;;;8.80;99.90;;;;;;5026131;28;20037;-66
2022/04/21 06:19:43;;;;;;;8.02;3.85;;;9.00;99.90;;;;;;5047044;28;20036;-66
2022/04/21 06:22:09;;;;;;;12.93;5.07;;;9.20;99.90;;;;;;5026532;28;20033;-66
2022/04/21 06:24:35;;;;;;;7.35;3.60;;;9.50;99.90;;;;;;5046972;28;20267;-66
2022/04/21 06:27:03;;;;;;;11.05;4.45;;;9.50;99.90;;;;;;5026186;28;20040;-66
2022/04/21 06:29:29;;;;;;;9.32;4.03;;;9.60;99.90;;;;;;5047300;28;20036;-66
2022/04/21 06:31:55;;;;;;;8.25;3.85;;;9.60;99.90;;;;;;5026280;28;20069;-66
2022/04/21 06:34:20;;;;;;;14.13;4.00;;;9.70;99.90;;;;;;5029536;28;20029;-66
2022/04/21 06:36:45;;;;;;;10.90;4.90;;;9.70;99.90;;;;;;5036359;28;20021;-66
2022/04/21 06:39:11;;;;;;;12.25;4.30;;;9.70;99.90;;;;;;5028328;28;20124;-66
2022/04/21 06:41:36;;;;;;;6.68;3.67;;;9.60;99.90;;;;;;5047906;28;20090;-65
2022/04/21 06:49:30;;;;;;;13.82;4.75;;;9.60;99.90;;;;;;5015951;28;20409;-66
2022/04/21 06:51:55;;;;;;;10.15;4.45;;;9.60;99.90;;;;;;5049235;28;20528;-66
2022/04/21 06:54:21;;;;;;;7.93;4.50;;;9.60;99.90;;;;;;5031757;28;20059;-66
2022/04/21 06:56:48;;;;;;;10.00;4.28;;;9.60;99.90;;;;;;5048742;28;20166;-66
2022/04/21 06:59:15;;;;;;;8.90;4.45;;;9.60;99.90;;;;;;5031953;28;20029;-63
2022/04/21 07:01:41;;;;;;;10.77;4.88;;;9.60;99.90;;;;;;5045651;28;20538;-64
2022/04/21 07:04:07;;;;;;;9.25;4.15;;;9.60;99.90;;;;;;5031628;28;20021;-63
2022/04/21 07:06:33;;;;;;;8.50;4.18;;;9.60;99.90;;;;;;5048444;28;20045;-63
2022/04/21 07:08:58;;;;;;;7.60;3.92;;;9.60;99.90;;;;;;5031297;28;20575;-63
2022/04/21 07:11:24;;;;;;;11.07;4.93;;;9.70;99.90;;;;;;5048271;28;20503;-64
2022/04/21 07:13:49;;;;;;;10.57;4.53;;;9.60;99.90;;;;;;5050793;28;20017;-63
2022/04/21 07:16:15;;;;;;;10.25;3.58;;;9.60;99.90;;;;;;5035679;28;20682;-63
2022/04/21 07:18:40;;;;;;;5.18;3.20;;;9.60;99.90;;;;;;5050529;28;20032;-63
2022/04/21 07:21:09;;;;;;;8.20;3.47;;;9.60;99.90;;;;;;5034174;28;20084;-64
2022/04/21 07:23:35;;;;;;;6.47;3.97;;;9.60;99.90;;;;;;5050803;28;20025;-64
2022/04/21 07:26:00;;;;;;;8.25;4.45;;;9.60;99.90;;;;;;5032950;28;20052;-64
2022/04/21 07:28:26;;;;;;;8.02;3.72;;;9.60;99.90;;;;;;5032740;28;20105;-63
2022/04/21 07:30:51;;;;;;;14.90;5.55;;;9.60;99.90;;;;;;5031968;28;20544;-63
2022/04/21 07:33:17;;;;;;;7.88;3.65;;;9.60;99.90;;;;;;5050231;28;20029;-63
2022/04/21 07:35:44;;;;;;;6.22;4.18;;;9.50;99.90;;;;;;5030545;28;20160;-63
2022/04/21 07:38:10;;;;;;;8.10;5.38;;;9.50;99.90;;;;;;5050529;28;20055;-64
2022/04/21 07:40:36;;;;;;;9.00;4.80;;;9.50;99.90;;;;;;5029280;28;20036;-63
2022/04/21 07:43:07;;;;;;;10.65;5.55;;;9.50;99.90;;;;;;5050363;28;20013;-63
2022/04/21 07:45:34;;;;;;;8.88;4.68;;;9.60;99.90;;;;;;5028569;28;20037;-63
2022/04/21 07:47:59;;;;;;;11.02;4.30;;;9.70;99.90;;;;;;5049911;28;20167;-63
2022/04/21 07:50:25;;;;;;;9.32;4.80;;;9.80;99.90;;;;;;5039997;28;20132;-63
2022/04/21 07:55:34;;;;;;;10.35;5.32;;;9.90;99.90;;;;;;5028968;28;20353;-63
2022/04/21 07:58:00;;;;;;;7.93;4.70;;;9.90;99.90;;;;;;5049894;28;20476;-63
2022/04/21 08:00:25;;;;;;;14.40;5.10;;;9.90;99.90;;;;;;5037548;28;20036;-63
2022/04/21 08:02:51;;;;;;;13.65;5.60;;;9.80;99.90;;;;;;5028707;28;20094;-64
2022/04/21 08:05:19;;;;;;;9.20;5.65;;;9.70;99.90;;;;;;5048787;28;20128;-64
2022/04/21 08:07:46;;;;;;;12.32;6.47;;;9.50;99.90;;;;;;5028443;28;20026;-63
2022/04/21 08:10:12;;;;;;;10.23;5.53;;;9.60;99.90;;;;;;5049171;28;20446;-64
2022/04/21 08:12:45;;;;;;;11.65;4.93;;;9.70;99.90;;;;;;5028332;28;20022;-63
2022/04/21 08:15:32;;;;;;;10.30;4.55;;;9.80;99.90;;;;;;5029786;28;20086;-64
2022/04/21 08:18:00;;;;;;;7.78;3.85;;;10.00;99.90;;;;;;5029347;28;20457;-63
2022/04/21 08:20:28;;;;;;;8.00;4.03;;;10.20;99.90;;;;;;5049227;28;20535;-63
2022/04/21 08:22:54;;;;;;;12.20;5.32;;;10.20;99.90;;;;;;5027975;28;20029;-64
2022/04/21 08:33:33;;;;;;;12.57;4.93;;;10.30;99.90;;;;;;5049849;28;20124;-64
2022/04/21 08:35:59;;;;;;;8.23;4.65;;;10.10;99.90;;;;;;5031519;28;20021;-63
2022/04/21 08:38:26;;;;;;;6.85;4.43;;;10.20;99.90;;;;;;5049395;28;20387;-63
2022/04/21 08:40:59;;;;;;;10.90;5.03;;;10.30;99.90;;;;;;5030398;28;20072;-63
2022/04/21 08:43:27;;;;;;;12.45;5.70;;;10.60;99.90;;;;;;5049086;28;20127;-63
2022/04/21 08:45:54;;;;;;;14.52;6.10;;;10.90;99.90;;;;;;5030464;28;20049;-63
2022/04/21 08:48:22;;;;;;;9.80;5.70;;;11.20;99.90;;;;;;5048980;28;20017;-63
2022/04/21 08:50:48;;;;;;;12.45;5.10;;;11.50;99.90;;;;;;5029337;28;20052;-63
2022/04/21 08:53:16;;;;;;;13.82;6.82;;;11.70;99.90;;;;;;5049150;28;20025;-64
2022/04/21 08:55:44;;;;;;;8.80;4.95;;;11.90;99.90;;;;;;5028542;28;20025;-63
2022/04/21 08:58:10;;;;;;;8.38;4.72;;;11.90;99.90;;;;;;5031458;28;20095;-63
2022/04/21 09:00:35;;;;;;;9.65;4.70;;;11.80;99.90;;;;;;5020984;28;20266;-63
2022/04/21 09:03:06;;;;;;;12.88;6.43;;;11.80;99.50;;;;;;5047927;28;20032;-64
2022/04/21 09:05:31;;;;;;;10.05;5.65;;;11.70;99.90;;;;;;5028844;28;20488;-64
2022/04/21 09:07:58;;;;;;;16.50;7.22;;;11.50;98.30;;;;;;5046516;28;20090;-64
2022/04/21 09:10:25;;;;;;;12.52;6.15;;;11.20;99.30;;;;;;5029047;28;20071;-64
2022/04/21 09:12:55;;;;;;;10.10;6.25;;;11.30;99.90;;;;;;5027343;28;20026;-64
2022/04/21 09:15:23;;;;;;;11.68;7.35;;;11.10;99.90;;;;;;5009211;28;20037;-64
2022/04/21 09:18:00;;;;;;;13.13;6.93;;;11.30;99.90;;;;;;5027426;28;20025;-64
2022/04/21 09:20:33;;;;;;;14.80;7.50;;;11.50;98.40;;;;;;5028701;28;20057;-64
2022/04/21 09:23:01;;;;;;;11.60;6.60;;;11.50;96.60;;;;;;5008790;28;20030;-64
2022/04/21 09:25:30;;;;;;;11.15;6.43;;;11.60;97.90;;;;;;5047858;28;20484;-64
2022/04/21 09:27:56;;;;;;;9.07;5.95;;;11.70;96.20;;;;;;5026688;28;20481;-64
2022/04/21 09:30:23;;;;;;;12.88;7.30;;;11.80;95.90;;;;;;5047849;28;20017;-64
2022/04/21 09:32:56;;;;;;;12.82;7.85;;;11.80;95.60;;;;;;5026995;28;20053;-63
2022/04/21 09:35:26;;;;;;;9.90;6.07;;;11.90;95.00;;;;;;5047788;28;20063;-64
2022/04/21 09:37:56;;;;;;;11.77;6.97;;;12.00;94.60;;;;;;5026523;28;20481;-64
2022/04/21 09:40:27;;;;;;;8.82;5.40;;;11.90;94.40;;;;;;5028447;28;20489;-64
2022/04/21 09:43:01;;;;;;;10.02;5.70;;;11.80;94.50;;;;;;5025895;28;20033;-64
2022/04/21 09:48:20;;;;;;;12.20;7.13;;;11.70;95.30;;;;;;5048092;28;20437;-64
2022/04/21 09:50:51;;;;;;;9.75;7.03;;;11.40;96.90;;;;;;5028286;28;20417;-64
2022/04/21 09:53:21;;;;;;;13.20;7.70;;;11.50;96.90;;;;;;5047829;28;20496;-64
2022/04/21 09:55:49;;;;;;;18.25;8.30;;;11.40;96.80;;;;;;5028120;28;20078;-63
2022/04/21 09:58:15;;;;;;;11.65;7.50;;;11.30;98.00;;;;;;5048064;28;20547;-64
2022/04/21 10:00:42;;;;;;;9.55;6.95;;;11.40;98.10;;;;;;5020820;28;20025;-63
2022/04/21 10:03:08;;;;;;;12.43;7.13;;;11.50;97.80;;;;;;5047981;28;20028;-64
2022/04/21 10:05:35;;;;;;;16.15;7.47;;;11.50;97.40;;;;;;5026518;28;20508;-63
2022/04/21 10:08:03;;;;;;;8.27;5.78;;;11.50;97.60;;;;;;5047807;28;20025;-64
2022/04/21 10:10:29;;;;;;;12.45;6.47;;;11.50;98.20;;;;;;5028011;28;20071;-64
2022/04/21 10:12:56;;;;;;;11.10;7.07;;;11.60;97.00;;;;;;5045468;28;20524;-64
2022/04/21 10:15:21;;;;;;;12.05;6.07;;;11.50;97.40;;;;;;5031120;28;20511;-64
2022/04/21 10:17:47;;;;;;;11.82;6.75;;;11.70;97.20;;;;;;5030919;28;20107;-63
2022/04/21 10:20:12;;;;;;;13.82;6.75;;;11.90;95.30;;;;;;5051233;28;20032;-64
2022/04/21 10:22:39;;;;;;;14.32;6.63;;;12.00;94.80;;;;;;5030285;28;20281;-63
2022/04/21 10:25:06;;;;;;;9.90;5.72;;;12.20;93.50;;;;;;5051129;28;20040;-64
2022/04/21 10:27:47;;;;;;;11.52;6.90;;;12.50;92.30;;;;;;5030087;28;20042;-64
2022/04/21 10:30:25;;;;;;;9.10;5.35;;;12.70;90.00;;;;;;5012159;28;20517;-64
2022/04/21 10:32:52;;;;;;;11.82;5.75;;;13.10;88.30;;;;;;5029317;28;20029;-64
2022/04/21 10:35:38;;;;;;;11.70;6.57;;;13.40;85.00;;;;;;5050738;28;20028;-64
2022/04/21 10:38:13;;;;;;;10.40;6.88;;;13.60;79.70;;;;;;5004918;28;20061;-64
2022/04/21 10:40:58;;;;;;;9.52;6.30;;;13.50;81.20;;;;;;5047891;28;20124;-63
2022/04/21 10:43:24;;;;;;;6.85;5.30;;;13.30;76.30;;;;;;5051482;28;20025;-64
2022/04/21 10:46:21;;;;;;;10.50;6.30;;;13.20;79.40;;;;;;5032344;28;20041;-64
2022/04/21 10:48:48;;;;;;;9.93;5.47;;;13.10;80.30;;;;;;5051448;28;20025;-64
2022/04/21 10:57:32;;;;;;;10.30;5.82;;;12.50;91.50;;;;;;5025626;28;20044;-64
2022/04/21 11:00:00;;;;;;;12.43;6.07;;;12.20;92.60;;;;;;5039206;28;20140;-63
2022/04/21 11:02:42;;;;;;;9.90;5.88;;;12.00;94.10;;;;;;5045128;28;20021;-64
2022/04/21 11:05:23;;;;;;;9.23;6.43;;;12.00;95.50;;;;;;5031465;28;20068;-64
2022/04/21 11:07:57;;;;;;;7.15;5.63;;;11.80;97.30;;;;;;5029707;28;20067;-64
2022/04/21 11:10:26;;;;;;;11.68;6.65;;;11.90;99.10;;;;;;5050555;28;20029;-72
2022/04/21 11:12:52;;;;;;;9.43;5.63;;;11.90;99.00;;;;;;5029532;28;20032;-73
2022/04/21 11:15:32;;;;;;;10.35;6.07;;;12.10;97.90;;;;;;5050036;28;20132;-71
2022/04/21 11:18:10;;;;;;;7.22;5.20;;;12.30;97.20;;;;;;5028838;28;20037;-71
2022/04/21 11:20:40;;;;;;;5.75;4.70;;;12.40;96.30;;;;;;5009896;28;20076;-71
2022/04/21 11:23:27;;;;;;;10.57;5.53;;;12.60;95.30;;;;;;5051004;28;20035;-71
2022/04/21 11:26:01;;;;;;;;;;;12.70;94.60;;;;;;5014307;28;21170;-72
2022/04/21 11:28:26;;;;;;;6.40;4.28;;;12.90;94.20;;;;;;5050742;28;19905;-72
2022/04/21 11:30:57;;;;;;;6.20;4.28;;;13.00;91.90;;;;;;5031844;28;20669;-72
2022/04/21 11:33:22;;;;;;;10.55;4.88;;;12.90;91.00;;;;;;5050600;28;20104;-72
2022/04/21 11:35:48;;;;;;;7.03;4.68;;;12.80;92.80;;;;;;5031374;28;20125;-71
2022/04/21 11:38:14;;;;;;;7.03;4.88;;;12.80;92.70;;;;;;5050461;28;20479;-71
2022/04/21 11:40:40;;;;;;;6.57;5.00;;;13.10;91.70;;;;;;5030006;28;20035;-71
2022/04/21 11:43:11;;;;;;;5.95;4.03;;;13.10;84.90;;;;;;5050619;28;20029;-71
2022/04/21 11:45:40;;;;;;;7.20;4.68;;;13.20;83.80;;;;;;5029127;28;20034;-71
2022/04/21 11:48:11;;;;;;;6.43;4.88;;;13.10;82.30;;;;;;5050402;28;20036;-71
2022/04/21 11:50:36;;;;;;;6.47;4.53;;;13.00;83.20;;;;;;5028674;28;20050;-71
2022/04/21 11:53:14;;;;;;;5.10;4.60;;;13.00;82.30;;;;;;5050170;28;20024;-72
2022/04/21 11:55:40;;;;;;;4.85;3.70;;;13.00;82.10;;;;;;5029151;28;20017;-71
2022/04/21 11:58:06;;;;;;;4.30;3.42;;;13.30;81.40;;;;;;5050177;28;20472;-71
2022/04/21 12:08:46;;;;;;;4.88;3.35;;;13.20;80.50;;;;;;5050003;28;20111;-71
2022/04/21 12:11:17;;;;;;;5.53;3.50;;;13.20;82.70;;;;;;5033658;28;20028;-72
2022/04/21 12:13:47;;;;;;;5.93;4.82;;;13.00;87.30;;;;;;5049772;28;20025;-71
2022/04/21 12:16:39;;;;;;;5.88;4.03;;;12.70;90.80;;;;;;5033668;28;20040;-72
2022/04/21 12:19:18;;;;;;;7.00;5.40;;;12.50;92.70;;;;;;5030261;28;20516;-71
2022/04/21 12:21:54;;;;;;;5.68;4.50;;;12.30;94.00;;;;;;5047500;28;20032;-71
2022/04/21 12:24:19;;;;;;;6.32;4.65;;;12.20;94.60;;;;;;5029793;28;20397;-71
2022/04/21 12:26:52;;;;;;;6.18;4.70;;;12.10;96.50;;;;;;5046847;28;20041;-71
2022/04/21 12:29:21;;;;;;;11.15;5.32;;;12.00;98.10;;;;;;5029289;28;20086;-72
2022/04/21 12:31:54;;;;;;;8.15;5.13;;;11.90;98.50;;;;;;5047528;28;20098;-71
2022/04/21 12:34:27;;;;;;;5.00;4.20;;;12.00;99.40;;;;;;5009802;28;20025;-72
2022/04/21 12:36:58;;;;;;;8.68;4.95;;;12.00;99.10;;;;;;5029662;28;20479;-71
2022/04/21 12:39:25;;;;;;;6.82;5.00;;;11.90;99.20;;;;;;5029438;28;20028;-71
2022/04/21 12:41:52;;;;;;;7.05;4.63;;;11.90;98.30;;;;;;5046860;28;20036;-71
2022/04/21 12:44:19;;;;;;;5.63;4.53;;;11.90;98.90;;;;;;5027992;28;20512;-71
2022/04/21 12:46:56;;;;;;;7.30;4.63;;;11.90;99.30;;;;;;5046585;28;20115;-71
2022/04/21 12:49:22;;;;;;;6.00;4.03;;;12.00;99.20;;;;;;5029958;28;20485;-72
2022/04/21 12:51:48;;;;;;;8.38;5.53;;;12.00;99.30;;;;;;5047240;28;20041;-71
2022/04/21 12:54:25;;;;;;;8.40;5.57;;;11.90;99.90;;;;;;5029547;28;20029;-71
2022/04/21 12:56:53;;;;;;;8.23;6.05;;;11.80;99.90;;;;;;5037898;28;20024;-71
2022/04/21 12:59:19;;;;;;;7.53;5.43;;;11.80;99.90;;;;;;5024232;28;20030;-71
2022/04/21 13:01:44;;;;;;;7.18;4.93;;;12.00;99.90;;;;;;5045623;28;20017;-61
2022/04/21 13:04:10;;;;;;;8.43;5.85;;;12.10;99.50;;;;;;5029423;28;20048;-61
2022/04/21 13:06:37;;;;;;;7.03;5.00;;;12.30;99.10;;;;;;5045790;28;20061;-61
2022/04/21 13:09:02;;;;;;;14.93;9.40;;;12.50;98.90;;;;;;5029010;28;20034;-61
2022/04/21 13:11:28;;;;;;;12.65;7.18;;;12.60;97.40;;;;;;5028136;28;20515;-61
2022/04/21 13:13:54;;;;;;;11.70;7.10;;;12.90;96.50;;;;;;5029232;28;20044;-61
2022/04/21 13:16:20;;;;;;;10.82;6.57;;;13.00;94.20;;;;;;5045854;28;20036;-61
2022/04/21 13:18:45;;;;;;;9.45;6.05;;;13.10;93.70;;;;;;5048530;28;20021;-62
2022/04/21 13:23:55;;;;;;;10.02;5.32;;;13.20;92.70;;;;;;5048427;28;20025;-61
2022/04/21 13:26:24;;;;;;;6.93;5.95;;;13.10;92.40;;;;;;5033617;28;20033;-61
2022/04/21 13:28:49;;;;;;;8.07;5.78;;;12.90;94.00;;;;;;5048390;28;20045;-61
2022/04/21 13:33:59;;;;;;;4.38;3.95;;;12.60;96.20;;;;;;5048300;28;20102;-61
2022/04/21 13:36:25;;;;;;;7.65;4.93;;;12.60;98.00;;;;;;5034095;28;20029;-61
2022/04/21 13:38:50;;;;;;;6.75;5.40;;;12.40;98.40;;;;;;5048574;28;20029;-61
2022/04/21 13:41:17;;;;;;;5.57;4.55;;;12.30;99.90;;;;;;5032586;28;20113;-61
2022/04/21 13:43:43;;;;;;;9.57;5.28;;;12.20;99.90;;;;;;5048085;28;20017;-61
2022/04/21 13:46:08;;;;;;;5.75;5.10;;;12.20;99.90;;;;;;5031631;28;20517;-61
2022/04/21 13:48:34;;;;;;;7.75;4.97;;;12.20;99.90;;;;;;5047596;28;20216;-61
2022/04/21 13:50:59;;;;;;;5.20;4.30;;;12.40;99.90;;;;;;5029828;28;20045;-61
2022/04/21 13:53:25;;;;;;;4.82;4.30;;;12.50;99.90;;;;;;5048149;28;20028;-61
2022/04/21 13:55:50;;;;;;;5.53;4.07;;;12.70;99.90;;;;;;5029185;28;20462;-61